sensor_id;sensor_type;location;lat;lon;timestamp;P1;durP1;ratioP1;P2;durP2;ratioP2
19406;SDS011;9839;53.364;-1.204;2023-05-29T00:00:38;27.60;;;7.87;;
19406;SDS011;9839;53.364;-1.204;2023-05-29T00:03:03;24.53;;;5.83;;
19406;SDS011;9839;53.364;-1.204;2023-05-29T00:05:30;18.43;;;6.07;;
19406;SDS011;9839;53.364;-1.204;2023-05-29T00:07:55;17.13;;;6.50;;
19406;SDS011;9839;53.364;-1.204;2023-05-29T00:10:21;15.50;;;5.00;;
19406;SDS011;9839;53.364;-1.204;2023-05-29T00:12:46;18.43;;;5.10;;
19406;SDS011;9839;53.364;-1.204;2023-05-29T00:15:11;18.17;;;4.90;;
19406;SDS011;9839;53.364;-1.204;2023-05-29T00:17:37;29.07;;;6.57;;
19406;SDS011;9839;53.364;-1.204;2023-05-29T00:20:04;31.27;;;8.30;;
19406;SDS011;9839;53.364;-1.204;2023-05-29T00:22:36;22.33;;;6.40;;
19406;SDS011;9839;53.364;-1.204;2023-05-29T00:25:06;19.63;;;5.87;;
19406;SDS011;9839;53.364;-1.204;2023-05-29T00:27:32;19.50;;;5.33;;
19406;SDS011;9839;53.364;-1.204;2023-05-29T00:30:02;14.97;;;5.30;;
19406;SDS011;9839;53.364;-1.204;2023-05-29T00:32:28;13.20;;;4.53;;
19406;SDS011;9839;53.364;-1.204;2023-05-29T00:34:54;17.07;;;6.03;;
19406;SDS011;9839;53.364;-1.204;2023-05-29T00:37:20;33.40;;;13.53;;
19406;SDS011;9839;53.364;-1.204;2023-05-29T00:39:49;33.53;;;14.13;;
19406;SDS011;9839;53.364;-1.204;2023-05-29T00:42:15;32.67;;;12.03;;
19406;SDS011;9839;53.364;-1.204;2023-05-29T00:44:40;24.27;;;9.33;;
19406;SDS011;9839;53.364;-1.204;2023-05-29T00:47:05;21.50;;;7.20;;
19406;SDS011;9839;53.364;-1.204;2023-05-29T00:49:31;26.10;;;6.20;;
19406;SDS011;9839;53.364;-1.204;2023-05-29T00:51:57;20.07;;;7.73;;
19406;SDS011;9839;53.364;-1.204;2023-05-29T00:54:26;21.33;;;7.83;;
19406;SDS011;9839;53.364;-1.204;2023-05-29T00:56:54;16.13;;;7.17;;
19406;SDS011;9839;53.364;-1.204;2023-05-29T00:59:22;15.60;;;5.20;;
19406;SDS011;9839;53.364;-1.204;2023-05-29T01:01:51;17.00;;;4.47;;
19406;SDS011;9839;53.364;-1.204;2023-05-29T01:04:16;17.73;;;3.63;;
19406;SDS011;9839;53.364;-1.204;2023-05-29T01:06:42;14.37;;;2.97;;
19406;SDS011;9839;53.364;-1.204;2023-05-29T01:09:08;11.40;;;3.97;;
19406;SDS011;9839;53.364;-1.204;2023-05-29T01:14:21;16.40;;;2.90;;
19406;SDS011;9839;53.364;-1.204;2023-05-29T01:22:54;21.73;;;4.03;;
19406;SDS011;9839;53.364;-1.204;2023-05-29T01:25:34;21.63;;;5.03;;
19406;SDS011;9839;53.364;-1.204;2023-05-29T01:28:20;20.37;;;4.13;;
19406;SDS011;9839;53.364;-1.204;2023-05-29T01:30:47;21.00;;;4.27;;
19406;SDS011;9839;53.364;-1.204;2023-05-29T01:33:14;16.73;;;3.57;;
19406;SDS011;9839;53.364;-1.204;2023-05-29T01:35:39;23.70;;;4.23;;
19406;SDS011;9839;53.364;-1.204;2023-05-29T01:38:05;17.00;;;3.80;;
19406;SDS011;9839;53.364;-1.204;2023-05-29T01:40:30;18.53;;;4.13;;
19406;SDS011;9839;53.364;-1.204;2023-05-29T01:42:56;20.00;;;3.80;;
19406;SDS011;9839;53.364;-1.204;2023-05-29T01:45:21;14.57;;;4.00;;
19406;SDS011;9839;53.364;-1.204;2023-05-29T01:47:47;22.17;;;3.80;;
19406;SDS011;9839;53.364;-1.204;2023-05-29T01:50:13;12.40;;;3.30;;
19406;SDS011;9839;53.364;-1.204;2023-05-29T01:52:40;15.90;;;3.60;;
19406;SDS011;9839;53.364;-1.204;2023-05-29T01:55:06;21.80;;;4.57;;
19406;SDS011;9839;53.364;-1.204;2023-05-29T01:57:32;10.80;;;2.87;;
19406;SDS011;9839;53.364;-1.204;2023-05-29T01:59:57;18.00;;;3.53;;
19406;SDS011;9839;53.364;-1.204;2023-05-29T02:02:23;17.07;;;3.50;;
19406;SDS011;9839;53.364;-1.204;2023-05-29T02:04:48;20.63;;;3.70;;
19406;SDS011;9839;53.364;-1.204;2023-05-29T02:07:14;12.63;;;3.00;;
19406;SDS011;9839;53.364;-1.204;2023-05-29T02:09:40;21.90;;;3.70;;
19406;SDS011;9839;53.364;-1.204;2023-05-29T02:12:06;10.97;;;3.07;;
19406;SDS011;9839;53.364;-1.204;2023-05-29T02:14:33;22.67;;;3.17;;
19406;SDS011;9839;53.364;-1.204;2023-05-29T02:16:58;17.67;;;3.87;;
19406;SDS011;9839;53.364;-1.204;2023-05-29T02:19:26;14.77;;;3.37;;
19406;SDS011;9839;53.364;-1.204;2023-05-29T02:21:52;18.47;;;3.27;;
19406;SDS011;9839;53.364;-1.204;2023-05-29T02:24:18;16.60;;;3.30;;
19406;SDS011;9839;53.364;-1.204;2023-05-29T02:26:43;8.70;;;3.00;;
19406;SDS011;9839;53.364;-1.204;2023-05-29T02:29:09;17.13;;;3.10;;
19406;SDS011;9839;53.364;-1.204;2023-05-29T02:31:35;14.03;;;3.33;;
19406;SDS011;9839;53.364;-1.204;2023-05-29T02:34:01;10.43;;;3.47;;
19406;SDS011;9839;53.364;-1.204;2023-05-29T02:36:26;17.10;;;3.60;;
19406;SDS011;9839;53.364;-1.204;2023-05-29T02:38:52;16.43;;;3.40;;
19406;SDS011;9839;53.364;-1.204;2023-05-29T02:41:18;9.07;;;2.53;;
19406;SDS011;9839;53.364;-1.204;2023-05-29T02:43:43;14.17;;;2.77;;
19406;SDS011;9839;53.364;-1.204;2023-05-29T02:46:09;9.83;;;3.23;;
19406;SDS011;9839;53.364;-1.204;2023-05-29T02:48:34;18.70;;;3.67;;
19406;SDS011;9839;53.364;-1.204;2023-05-29T02:51:00;15.13;;;3.87;;
19406;SDS011;9839;53.364;-1.204;2023-05-29T02:53:25;14.90;;;3.47;;
19406;SDS011;9839;53.364;-1.204;2023-05-29T02:55:50;18.63;;;3.00;;
19406;SDS011;9839;53.364;-1.204;2023-05-29T02:58:16;12.30;;;3.70;;
19406;SDS011;9839;53.364;-1.204;2023-05-29T03:00:42;11.30;;;2.87;;
19406;SDS011;9839;53.364;-1.204;2023-05-29T03:03:07;14.00;;;3.70;;
19406;SDS011;9839;53.364;-1.204;2023-05-29T03:05:33;12.20;;;3.37;;
19406;SDS011;9839;53.364;-1.204;2023-05-29T03:07:59;16.07;;;2.97;;
19406;SDS011;9839;53.364;-1.204;2023-05-29T03:10:24;15.07;;;2.80;;
19406;SDS011;9839;53.364;-1.204;2023-05-29T03:12:49;13.50;;;3.50;;
19406;SDS011;9839;53.364;-1.204;2023-05-29T03:15:16;9.93;;;2.80;;
19406;SDS011;9839;53.364;-1.204;2023-05-29T03:17:41;15.77;;;3.17;;
19406;SDS011;9839;53.364;-1.204;2023-05-29T03:20:07;16.87;;;2.83;;
19406;SDS011;9839;53.364;-1.204;2023-05-29T03:22:35;18.83;;;3.33;;
19406;SDS011;9839;53.364;-1.204;2023-05-29T03:25:01;16.17;;;2.60;;
19406;SDS011;9839;53.364;-1.204;2023-05-29T03:27:30;18.57;;;3.33;;
19406;SDS011;9839;53.364;-1.204;2023-05-29T03:29:55;16.57;;;4.03;;
19406;SDS011;9839;53.364;-1.204;2023-05-29T03:32:21;15.93;;;2.80;;
19406;SDS011;9839;53.364;-1.204;2023-05-29T03:34:46;8.03;;;2.67;;
19406;SDS011;9839;53.364;-1.204;2023-05-29T03:37:12;7.50;;;2.67;;
19406;SDS011;9839;53.364;-1.204;2023-05-29T03:39:38;13.43;;;3.10;;
19406;SDS011;9839;53.364;-1.204;2023-05-29T03:42:03;13.03;;;2.80;;
19406;SDS011;9839;53.364;-1.204;2023-05-29T03:44:29;13.10;;;2.50;;
19406;SDS011;9839;53.364;-1.204;2023-05-29T03:46:54;15.07;;;3.10;;
19406;SDS011;9839;53.364;-1.204;2023-05-29T03:49:20;14.37;;;3.63;;
19406;SDS011;9839;53.364;-1.204;2023-05-29T03:51:45;14.53;;;3.50;;
19406;SDS011;9839;53.364;-1.204;2023-05-29T03:54:11;12.73;;;3.00;;
19406;SDS011;9839;53.364;-1.204;2023-05-29T03:56:36;13.90;;;3.13;;
19406;SDS011;9839;53.364;-1.204;2023-05-29T03:59:02;11.40;;;3.30;;
19406;SDS011;9839;53.364;-1.204;2023-05-29T04:01:27;16.33;;;3.27;;
19406;SDS011;9839;53.364;-1.204;2023-05-29T04:03:53;10.97;;;3.00;;
19406;SDS011;9839;53.364;-1.204;2023-05-29T04:06:18;16.97;;;3.40;;
19406;SDS011;9839;53.364;-1.204;2023-05-29T04:08:43;11.17;;;2.70;;
19406;SDS011;9839;53.364;-1.204;2023-05-29T04:11:09;8.50;;;2.87;;
19406;SDS011;9839;53.364;-1.204;2023-05-29T04:13:37;12.23;;;2.97;;
19406;SDS011;9839;53.364;-1.204;2023-05-29T04:16:02;16.83;;;3.50;;
19406;SDS011;9839;53.364;-1.204;2023-05-29T04:18:29;14.63;;;2.93;;
19406;SDS011;9839;53.364;-1.204;2023-05-29T04:20:54;7.20;;;3.00;;
19406;SDS011;9839;53.364;-1.204;2023-05-29T04:23:20;12.60;;;2.60;;
19406;SDS011;9839;53.364;-1.204;2023-05-29T04:25:46;9.47;;;2.93;;
19406;SDS011;9839;53.364;-1.204;2023-05-29T04:28:11;9.43;;;2.80;;
19406;SDS011;9839;53.364;-1.204;2023-05-29T04:30:37;11.33;;;3.43;;
19406;SDS011;9839;53.364;-1.204;2023-05-29T04:33:04;11.97;;;3.00;;
19406;SDS011;9839;53.364;-1.204;2023-05-29T04:35:29;15.27;;;2.63;;
19406;SDS011;9839;53.364;-1.204;2023-05-29T04:37:55;13.30;;;2.77;;
19406;SDS011;9839;53.364;-1.204;2023-05-29T04:40:21;12.90;;;2.67;;
19406;SDS011;9839;53.364;-1.204;2023-05-29T04:42:47;13.23;;;2.27;;
19406;SDS011;9839;53.364;-1.204;2023-05-29T04:45:12;14.00;;;3.20;;
19406;SDS011;9839;53.364;-1.204;2023-05-29T04:47:39;13.43;;;3.03;;
19406;SDS011;9839;53.364;-1.204;2023-05-29T04:50:11;14.33;;;2.90;;
19406;SDS011;9839;53.364;-1.204;2023-05-29T04:52:37;9.70;;;3.43;;
19406;SDS011;9839;53.364;-1.204;2023-05-29T04:55:03;13.23;;;2.80;;
19406;SDS011;9839;53.364;-1.204;2023-05-29T04:57:29;6.90;;;2.60;;
19406;SDS011;9839;53.364;-1.204;2023-05-29T04:59:54;9.80;;;2.63;;
19406;SDS011;9839;53.364;-1.204;2023-05-29T05:02:19;11.63;;;2.67;;
19406;SDS011;9839;53.364;-1.204;2023-05-29T05:04:45;8.30;;;2.63;;
19406;SDS011;9839;53.364;-1.204;2023-05-29T05:07:11;11.23;;;2.40;;
19406;SDS011;9839;53.364;-1.204;2023-05-29T05:09:36;10.83;;;2.70;;
19406;SDS011;9839;53.364;-1.204;2023-05-29T05:12:02;9.47;;;2.60;;
19406;SDS011;9839;53.364;-1.204;2023-05-29T05:14:27;7.77;;;2.70;;
19406;SDS011;9839;53.364;-1.204;2023-05-29T05:16:53;10.97;;;2.30;;
19406;SDS011;9839;53.364;-1.204;2023-05-29T05:19:19;9.53;;;2.63;;
19406;SDS011;9839;53.364;-1.204;2023-05-29T05:21:44;10.13;;;2.70;;
19406;SDS011;9839;53.364;-1.204;2023-05-29T05:24:10;11.40;;;2.40;;
19406;SDS011;9839;53.364;-1.204;2023-05-29T05:26:36;10.70;;;2.27;;
19406;SDS011;9839;53.364;-1.204;2023-05-29T05:29:01;11.47;;;2.20;;
19406;SDS011;9839;53.364;-1.204;2023-05-29T05:31:26;15.67;;;2.40;;
19406;SDS011;9839;53.364;-1.204;2023-05-29T05:33:52;8.57;;;2.30;;
19406;SDS011;9839;53.364;-1.204;2023-05-29T05:36:18;10.30;;;2.60;;
19406;SDS011;9839;53.364;-1.204;2023-05-29T05:38:43;7.53;;;2.20;;
19406;SDS011;9839;53.364;-1.204;2023-05-29T05:41:09;21.20;;;2.70;;
19406;SDS011;9839;53.364;-1.204;2023-05-29T05:43:35;7.90;;;2.10;;
19406;SDS011;9839;53.364;-1.204;2023-05-29T05:46:00;10.17;;;2.93;;
19406;SDS011;9839;53.364;-1.204;2023-05-29T05:48:26;7.73;;;1.83;;
19406;SDS011;9839;53.364;-1.204;2023-05-29T05:50:52;11.60;;;2.10;;
19406;SDS011;9839;53.364;-1.204;2023-05-29T05:53:17;8.33;;;2.07;;
19406;SDS011;9839;53.364;-1.204;2023-05-29T05:55:43;9.30;;;2.00;;
19406;SDS011;9839;53.364;-1.204;2023-05-29T05:58:08;8.07;;;2.07;;
19406;SDS011;9839;53.364;-1.204;2023-05-29T06:00:34;12.00;;;2.10;;
19406;SDS011;9839;53.364;-1.204;2023-05-29T06:02:59;4.03;;;1.83;;
19406;SDS011;9839;53.364;-1.204;2023-05-29T06:05:27;6.83;;;2.30;;
19406;SDS011;9839;53.364;-1.204;2023-05-29T06:07:53;12.07;;;2.00;;
19406;SDS011;9839;53.364;-1.204;2023-05-29T06:10:18;9.90;;;2.50;;
19406;SDS011;9839;53.364;-1.204;2023-05-29T06:12:44;14.20;;;3.07;;
19406;SDS011;9839;53.364;-1.204;2023-05-29T06:15:10;9.63;;;2.40;;
19406;SDS011;9839;53.364;-1.204;2023-05-29T06:17:35;9.50;;;1.90;;
19406;SDS011;9839;53.364;-1.204;2023-05-29T06:20:01;7.13;;;2.20;;
19406;SDS011;9839;53.364;-1.204;2023-05-29T06:22:26;6.90;;;1.93;;
19406;SDS011;9839;53.364;-1.204;2023-05-29T06:24:51;10.27;;;2.27;;
19406;SDS011;9839;53.364;-1.204;2023-05-29T06:27:17;12.57;;;2.50;;
19406;SDS011;9839;53.364;-1.204;2023-05-29T06:29:43;6.27;;;2.03;;
19406;SDS011;9839;53.364;-1.204;2023-05-29T06:32:09;11.73;;;2.23;;
19406;SDS011;9839;53.364;-1.204;2023-05-29T06:34:34;10.25;;;2.45;;
19406;SDS011;9839;53.364;-1.204;2023-05-29T06:37:00;9.63;;;2.23;;
19406;SDS011;9839;53.364;-1.204;2023-05-29T06:39:25;6.25;;;2.33;;
19406;SDS011;9839;53.364;-1.204;2023-05-29T06:41:51;10.32;;;3.15;;
19406;SDS011;9839;53.364;-1.204;2023-05-29T06:44:16;8.82;;;2.15;;
19406;SDS011;9839;53.364;-1.204;2023-05-29T06:46:42;11.60;;;2.15;;
19406;SDS011;9839;53.364;-1.204;2023-05-29T06:49:07;14.35;;;2.70;;
19406;SDS011;9839;53.364;-1.204;2023-05-29T06:51:33;7.43;;;2.15;;
19406;SDS011;9839;53.364;-1.204;2023-05-29T06:53:58;10.73;;;1.88;;
19406;SDS011;9839;53.364;-1.204;2023-05-29T06:56:24;12.80;;;1.90;;
19406;SDS011;9839;53.364;-1.204;2023-05-29T06:58:51;7.20;;;2.03;;
19406;SDS011;9839;53.364;-1.204;2023-05-29T07:01:16;9.00;;;2.08;;
19406;SDS011;9839;53.364;-1.204;2023-05-29T07:03:42;7.20;;;2.00;;
19406;SDS011;9839;53.364;-1.204;2023-05-29T07:06:08;10.68;;;1.90;;
19406;SDS011;9839;53.364;-1.204;2023-05-29T07:08:33;9.77;;;1.98;;
19406;SDS011;9839;53.364;-1.204;2023-05-29T07:10:59;6.30;;;1.58;;
19406;SDS011;9839;53.364;-1.204;2023-05-29T07:13:24;11.77;;;2.33;;
19406;SDS011;9839;53.364;-1.204;2023-05-29T07:15:51;10.48;;;2.15;;
19406;SDS011;9839;53.364;-1.204;2023-05-29T07:18:17;10.00;;;1.88;;
19406;SDS011;9839;53.364;-1.204;2023-05-29T07:20:42;10.75;;;2.55;;
19406;SDS011;9839;53.364;-1.204;2023-05-29T07:23:08;10.15;;;2.13;;
19406;SDS011;9839;53.364;-1.204;2023-05-29T07:25:33;12.38;;;2.65;;
19406;SDS011;9839;53.364;-1.204;2023-05-29T07:27:59;5.60;;;1.77;;
19406;SDS011;9839;53.364;-1.204;2023-05-29T07:30:24;9.05;;;2.30;;
19406;SDS011;9839;53.364;-1.204;2023-05-29T07:32:49;8.05;;;1.67;;
19406;SDS011;9839;53.364;-1.204;2023-05-29T07:35:15;5.85;;;1.70;;
19406;SDS011;9839;53.364;-1.204;2023-05-29T07:37:40;10.82;;;2.30;;
19406;SDS011;9839;53.364;-1.204;2023-05-29T07:40:06;7.18;;;1.60;;
19406;SDS011;9839;53.364;-1.204;2023-05-29T07:42:32;8.13;;;1.50;;
19406;SDS011;9839;53.364;-1.204;2023-05-29T07:44:58;11.45;;;2.78;;
19406;SDS011;9839;53.364;-1.204;2023-05-29T07:47:23;6.43;;;1.58;;
19406;SDS011;9839;53.364;-1.204;2023-05-29T07:49:49;5.82;;;1.80;;
19406;SDS011;9839;53.364;-1.204;2023-05-29T07:52:15;7.97;;;1.80;;
19406;SDS011;9839;53.364;-1.204;2023-05-29T07:54:40;8.00;;;2.03;;
19406;SDS011;9839;53.364;-1.204;2023-05-29T07:57:06;8.98;;;1.92;;
19406;SDS011;9839;53.364;-1.204;2023-05-29T07:59:35;11.50;;;1.77;;
19406;SDS011;9839;53.364;-1.204;2023-05-29T08:02:01;9.48;;;1.70;;
19406;SDS011;9839;53.364;-1.204;2023-05-29T08:04:28;10.10;;;1.65;;
19406;SDS011;9839;53.364;-1.204;2023-05-29T08:06:53;7.95;;;3.08;;
19406;SDS011;9839;53.364;-1.204;2023-05-29T08:09:19;7.18;;;1.98;;
19406;SDS011;9839;53.364;-1.204;2023-05-29T08:11:45;8.95;;;1.98;;
19406;SDS011;9839;53.364;-1.204;2023-05-29T08:14:11;11.10;;;2.25;;
19406;SDS011;9839;53.364;-1.204;2023-05-29T08:16:37;6.55;;;2.17;;
19406;SDS011;9839;53.364;-1.204;2023-05-29T08:19:03;6.25;;;1.42;;
19406;SDS011;9839;53.364;-1.204;2023-05-29T08:21:29;6.68;;;1.77;;
19406;SDS011;9839;53.364;-1.204;2023-05-29T08:23:56;5.72;;;1.75;;
19406;SDS011;9839;53.364;-1.204;2023-05-29T08:26:22;5.40;;;1.50;;
19406;SDS011;9839;53.364;-1.204;2023-05-29T08:28:48;5.10;;;1.52;;
19406;SDS011;9839;53.364;-1.204;2023-05-29T08:31:13;10.55;;;2.05;;
19406;SDS011;9839;53.364;-1.204;2023-05-29T08:33:39;5.20;;;1.60;;
19406;SDS011;9839;53.364;-1.204;2023-05-29T08:36:05;9.00;;;1.70;;
19406;SDS011;9839;53.364;-1.204;2023-05-29T08:38:30;8.00;;;2.03;;
19406;SDS011;9839;53.364;-1.204;2023-05-29T08:40:56;7.57;;;2.00;;
19406;SDS011;9839;53.364;-1.204;2023-05-29T08:43:23;5.28;;;1.90;;
19406;SDS011;9839;53.364;-1.204;2023-05-29T08:45:55;7.63;;;1.60;;
19406;SDS011;9839;53.364;-1.204;2023-05-29T08:48:25;6.15;;;1.77;;
19406;SDS011;9839;53.364;-1.204;2023-05-29T08:50:52;6.32;;;1.60;;
19406;SDS011;9839;53.364;-1.204;2023-05-29T08:53:20;10.38;;;1.85;;
19406;SDS011;9839;53.364;-1.204;2023-05-29T08:55:46;8.70;;;1.70;;
19406;SDS011;9839;53.364;-1.204;2023-05-29T08:58:13;6.97;;;2.10;;
19406;SDS011;9839;53.364;-1.204;2023-05-29T09:00:39;4.57;;;1.73;;
19406;SDS011;9839;53.364;-1.204;2023-05-29T09:03:06;6.50;;;1.92;;
19406;SDS011;9839;53.364;-1.204;2023-05-29T09:05:32;5.20;;;1.90;;
19406;SDS011;9839;53.364;-1.204;2023-05-29T09:07:58;8.48;;;2.42;;
19406;SDS011;9839;53.364;-1.204;2023-05-29T09:10:24;7.65;;;2.20;;
19406;SDS011;9839;53.364;-1.204;2023-05-29T09:12:52;3.92;;;2.05;;
19406;SDS011;9839;53.364;-1.204;2023-05-29T09:15:18;7.68;;;1.83;;
19406;SDS011;9839;53.364;-1.204;2023-05-29T09:17:54;4.35;;;1.63;;
19406;SDS011;9839;53.364;-1.204;2023-05-29T09:20:23;5.47;;;2.00;;
19406;SDS011;9839;53.364;-1.204;2023-05-29T09:23:08;6.82;;;1.83;;
19406;SDS011;9839;53.364;-1.204;2023-05-29T09:25:35;11.25;;;1.85;;
19406;SDS011;9839;53.364;-1.204;2023-05-29T09:28:10;7.30;;;1.98;;
19406;SDS011;9839;53.364;-1.204;2023-05-29T09:33:01;7.18;;;2.90;;
19406;SDS011;9839;53.364;-1.204;2023-05-29T09:35:32;10.10;;;3.25;;
19406;SDS011;9839;53.364;-1.204;2023-05-29T09:38:04;11.68;;;2.75;;
19406;SDS011;9839;53.364;-1.204;2023-05-29T09:40:30;9.95;;;3.35;;
19406;SDS011;9839;53.364;-1.204;2023-05-29T09:43:18;6.22;;;2.35;;
19406;SDS011;9839;53.364;-1.204;2023-05-29T09:45:45;7.97;;;2.42;;
19406;SDS011;9839;53.364;-1.204;2023-05-29T09:48:12;8.07;;;2.30;;
19406;SDS011;9839;53.364;-1.204;2023-05-29T09:50:47;8.15;;;2.60;;
19406;SDS011;9839;53.364;-1.204;2023-05-29T09:53:19;7.55;;;2.30;;
19406;SDS011;9839;53.364;-1.204;2023-05-29T09:55:48;7.47;;;2.35;;
19406;SDS011;9839;53.364;-1.204;2023-05-29T09:58:15;9.95;;;2.70;;
19406;SDS011;9839;53.364;-1.204;2023-05-29T10:00:42;7.30;;;2.47;;
19406;SDS011;9839;53.364;-1.204;2023-05-29T10:03:09;7.45;;;2.40;;
19406;SDS011;9839;53.364;-1.204;2023-05-29T10:05:36;6.85;;;2.45;;
19406;SDS011;9839;53.364;-1.204;2023-05-29T10:08:02;7.30;;;2.65;;
19406;SDS011;9839;53.364;-1.204;2023-05-29T10:10:30;9.88;;;2.90;;
19406;SDS011;9839;53.364;-1.204;2023-05-29T10:12:55;8.93;;;2.28;;
19406;SDS011;9839;53.364;-1.204;2023-05-29T10:15:22;6.25;;;2.17;;
19406;SDS011;9839;53.364;-1.204;2023-05-29T10:17:49;10.55;;;2.20;;
19406;SDS011;9839;53.364;-1.204;2023-05-29T10:20:16;13.15;;;2.65;;
19406;SDS011;9839;53.364;-1.204;2023-05-29T10:22:44;5.80;;;2.00;;
19406;SDS011;9839;53.364;-1.204;2023-05-29T10:25:14;6.15;;;2.45;;
19406;SDS011;9839;53.364;-1.204;2023-05-29T10:27:42;5.93;;;2.50;;
19406;SDS011;9839;53.364;-1.204;2023-05-29T10:30:21;10.70;;;2.45;;
19406;SDS011;9839;53.364;-1.204;2023-05-29T10:33:08;9.10;;;2.38;;
19406;SDS011;9839;53.364;-1.204;2023-05-29T10:38:24;7.05;;;2.08;;
19406;SDS011;9839;53.364;-1.204;2023-05-29T10:40:51;5.70;;;1.95;;
19406;SDS011;9839;53.364;-1.204;2023-05-29T10:43:30;8.48;;;2.15;;
19406;SDS011;9839;53.364;-1.204;2023-05-29T10:45:59;5.45;;;2.25;;
19406;SDS011;9839;53.364;-1.204;2023-05-29T10:50:53;11.25;;;2.13;;
19406;SDS011;9839;53.364;-1.204;2023-05-29T10:53:23;7.60;;;1.73;;
19406;SDS011;9839;53.364;-1.204;2023-05-29T10:55:51;10.23;;;2.15;;
19406;SDS011;9839;53.364;-1.204;2023-05-29T10:58:23;8.05;;;2.47;;
19406;SDS011;9839;53.364;-1.204;2023-05-29T11:00:50;6.00;;;1.95;;
19406;SDS011;9839;53.364;-1.204;2023-05-29T11:03:29;8.45;;;1.70;;
19406;SDS011;9839;53.364;-1.204;2023-05-29T11:11:16;7.72;;;1.50;;
19406;SDS011;9839;53.364;-1.204;2023-05-29T11:14:01;7.40;;;2.28;;
19406;SDS011;9839;53.364;-1.204;2023-05-29T11:18:57;12.10;;;2.33;;
19406;SDS011;9839;53.364;-1.204;2023-05-29T11:21:34;8.73;;;2.20;;
19406;SDS011;9839;53.364;-1.204;2023-05-29T11:26:50;6.28;;;2.40;;
19406;SDS011;9839;53.364;-1.204;2023-05-29T11:29:20;7.43;;;2.03;;
19406;SDS011;9839;53.364;-1.204;2023-05-29T11:32:01;5.88;;;2.20;;
19406;SDS011;9839;53.364;-1.204;2023-05-29T11:34:28;6.38;;;2.10;;
19406;SDS011;9839;53.364;-1.204;2023-05-29T11:36:56;7.43;;;2.17;;
19406;SDS011;9839;53.364;-1.204;2023-05-29T11:39:22;4.88;;;1.85;;
19406;SDS011;9839;53.364;-1.204;2023-05-29T11:41:51;6.07;;;1.73;;
19406;SDS011;9839;53.364;-1.204;2023-05-29T11:44:18;6.10;;;2.15;;
19406;SDS011;9839;53.364;-1.204;2023-05-29T11:46:43;8.25;;;2.17;;
19406;SDS011;9839;53.364;-1.204;2023-05-29T11:49:09;9.45;;;2.08;;
19406;SDS011;9839;53.364;-1.204;2023-05-29T11:51:35;7.93;;;1.75;;
19406;SDS011;9839;53.364;-1.204;2023-05-29T11:54:01;12.27;;;1.75;;
19406;SDS011;9839;53.364;-1.204;2023-05-29T11:56:27;9.82;;;1.67;;
19406;SDS011;9839;53.364;-1.204;2023-05-29T11:58:53;5.55;;;1.63;;
19406;SDS011;9839;53.364;-1.204;2023-05-29T12:01:24;5.63;;;1.73;;
19406;SDS011;9839;53.364;-1.204;2023-05-29T12:03:53;8.98;;;1.90;;
19406;SDS011;9839;53.364;-1.204;2023-05-29T12:06:31;6.30;;;1.48;;
19406;SDS011;9839;53.364;-1.204;2023-05-29T12:09:02;5.25;;;1.67;;
19406;SDS011;9839;53.364;-1.204;2023-05-29T12:11:29;6.18;;;1.30;;
19406;SDS011;9839;53.364;-1.204;2023-05-29T12:13:55;9.30;;;2.22;;
19406;SDS011;9839;53.364;-1.204;2023-05-29T12:16:21;8.52;;;1.73;;
19406;SDS011;9839;53.364;-1.204;2023-05-29T12:18:47;8.07;;;2.00;;
19406;SDS011;9839;53.364;-1.204;2023-05-29T12:21:12;4.70;;;1.55;;
19406;SDS011;9839;53.364;-1.204;2023-05-29T12:23:38;3.88;;;1.52;;
19406;SDS011;9839;53.364;-1.204;2023-05-29T12:26:04;8.43;;;1.60;;
19406;SDS011;9839;53.364;-1.204;2023-05-29T12:28:30;3.72;;;1.60;;
19406;SDS011;9839;53.364;-1.204;2023-05-29T12:30:59;6.93;;;2.05;;
19406;SDS011;9839;53.364;-1.204;2023-05-29T12:33:28;7.90;;;1.65;;
19406;SDS011;9839;53.364;-1.204;2023-05-29T12:36:00;4.07;;;1.70;;
19406;SDS011;9839;53.364;-1.204;2023-05-29T12:38:45;5.13;;;1.70;;
19406;SDS011;9839;53.364;-1.204;2023-05-29T12:43:52;7.28;;;1.90;;
19406;SDS011;9839;53.364;-1.204;2023-05-29T12:46:18;5.35;;;1.70;;
19406;SDS011;9839;53.364;-1.204;2023-05-29T12:48:44;8.10;;;2.17;;
19406;SDS011;9839;53.364;-1.204;2023-05-29T12:51:09;9.18;;;2.80;;
19406;SDS011;9839;53.364;-1.204;2023-05-29T12:53:35;10.30;;;2.55;;
19406;SDS011;9839;53.364;-1.204;2023-05-29T12:56:00;8.15;;;2.67;;
19406;SDS011;9839;53.364;-1.204;2023-05-29T12:58:26;7.68;;;2.17;;
19406;SDS011;9839;53.364;-1.204;2023-05-29T13:00:53;6.80;;;2.25;;
19406;SDS011;9839;53.364;-1.204;2023-05-29T13:03:22;8.57;;;2.58;;
19406;SDS011;9839;53.364;-1.204;2023-05-29T13:05:51;8.40;;;2.03;;
19406;SDS011;9839;53.364;-1.204;2023-05-29T13:08:16;14.18;;;2.17;;
19406;SDS011;9839;53.364;-1.204;2023-05-29T13:10:42;9.77;;;2.35;;
19406;SDS011;9839;53.364;-1.204;2023-05-29T13:13:08;8.88;;;2.40;;
19406;SDS011;9839;53.364;-1.204;2023-05-29T13:15:35;8.93;;;2.10;;
19406;SDS011;9839;53.364;-1.204;2023-05-29T13:18:00;7.55;;;1.70;;
19406;SDS011;9839;53.364;-1.204;2023-05-29T13:20:26;10.85;;;2.35;;
19406;SDS011;9839;53.364;-1.204;2023-05-29T13:22:51;9.18;;;2.55;;
19406;SDS011;9839;53.364;-1.204;2023-05-29T13:25:19;14.18;;;2.53;;
19406;SDS011;9839;53.364;-1.204;2023-05-29T13:27:48;10.82;;;2.10;;
19406;SDS011;9839;53.364;-1.204;2023-05-29T13:30:15;7.47;;;1.83;;
19406;SDS011;9839;53.364;-1.204;2023-05-29T13:32:41;9.88;;;2.80;;
19406;SDS011;9839;53.364;-1.204;2023-05-29T13:35:07;8.20;;;1.77;;
19406;SDS011;9839;53.364;-1.204;2023-05-29T13:37:33;11.98;;;2.47;;
19406;SDS011;9839;53.364;-1.204;2023-05-29T13:39:59;11.27;;;2.47;;
19406;SDS011;9839;53.364;-1.204;2023-05-29T13:42:24;11.60;;;2.25;;
19406;SDS011;9839;53.364;-1.204;2023-05-29T13:44:50;7.90;;;1.90;;
19406;SDS011;9839;53.364;-1.204;2023-05-29T13:47:16;8.82;;;2.38;;
19406;SDS011;9839;53.364;-1.204;2023-05-29T13:49:41;11.20;;;2.45;;
19406;SDS011;9839;53.364;-1.204;2023-05-29T13:52:07;9.05;;;2.05;;
19406;SDS011;9839;53.364;-1.204;2023-05-29T13:54:33;11.55;;;2.40;;
19406;SDS011;9839;53.364;-1.204;2023-05-29T13:57:01;9.73;;;2.38;;
19406;SDS011;9839;53.364;-1.204;2023-05-29T13:59:28;9.23;;;3.13;;
19406;SDS011;9839;53.364;-1.204;2023-05-29T14:01:54;8.30;;;2.78;;
19406;SDS011;9839;53.364;-1.204;2023-05-29T14:04:19;9.93;;;2.72;;
19406;SDS011;9839;53.364;-1.204;2023-05-29T14:06:44;11.63;;;2.55;;
19406;SDS011;9839;53.364;-1.204;2023-05-29T14:09:10;10.40;;;3.00;;
19406;SDS011;9839;53.364;-1.204;2023-05-29T14:11:36;7.70;;;2.53;;
19406;SDS011;9839;53.364;-1.204;2023-05-29T14:14:02;13.23;;;3.65;;
19406;SDS011;9839;53.364;-1.204;2023-05-29T14:16:28;12.43;;;2.22;;
19406;SDS011;9839;53.364;-1.204;2023-05-29T14:18:54;11.25;;;2.33;;
19406;SDS011;9839;53.364;-1.204;2023-05-29T14:21:19;9.05;;;2.53;;
19406;SDS011;9839;53.364;-1.204;2023-05-29T14:23:46;5.10;;;1.80;;
19406;SDS011;9839;53.364;-1.204;2023-05-29T14:26:11;10.80;;;2.42;;
19406;SDS011;9839;53.364;-1.204;2023-05-29T14:28:37;10.38;;;3.05;;
19406;SDS011;9839;53.364;-1.204;2023-05-29T14:31:03;7.97;;;1.98;;
19406;SDS011;9839;53.364;-1.204;2023-05-29T14:33:29;14.02;;;2.72;;
19406;SDS011;9839;53.364;-1.204;2023-05-29T14:35:55;8.55;;;2.40;;
19406;SDS011;9839;53.364;-1.204;2023-05-29T14:38:20;9.80;;;2.55;;
19406;SDS011;9839;53.364;-1.204;2023-05-29T14:40:46;7.35;;;1.80;;
19406;SDS011;9839;53.364;-1.204;2023-05-29T14:43:11;6.45;;;1.92;;
19406;SDS011;9839;53.364;-1.204;2023-05-29T14:45:37;15.18;;;2.55;;
19406;SDS011;9839;53.364;-1.204;2023-05-29T14:48:02;9.35;;;2.53;;
19406;SDS011;9839;53.364;-1.204;2023-05-29T14:50:28;8.63;;;2.17;;
19406;SDS011;9839;53.364;-1.204;2023-05-29T14:52:53;11.18;;;2.25;;
19406;SDS011;9839;53.364;-1.204;2023-05-29T14:55:18;5.38;;;2.10;;
19406;SDS011;9839;53.364;-1.204;2023-05-29T14:57:44;8.30;;;2.25;;
19406;SDS011;9839;53.364;-1.204;2023-05-29T15:00:09;6.15;;;2.17;;
19406;SDS011;9839;53.364;-1.204;2023-05-29T15:02:36;5.35;;;1.98;;
19406;SDS011;9839;53.364;-1.204;2023-05-29T15:05:04;6.57;;;2.00;;
19406;SDS011;9839;53.364;-1.204;2023-05-29T15:07:30;6.05;;;1.85;;